Tropical Cyclones
[Index]
Season 2019-2020 Tropical Cyclone GABEKILE Track Map
Season 2019-2020 Summaries (Operational Data): [AU] [SIO] [SPAC] [SH]
<<- Previous TC | 2019-2020 Season | Next TC ->>

click for intensity scale information  Lat/long Grid: Show Hide

 Date Labels: Show Hide

Operational Tropical Cyclone Data

Name: GABEKILE
Number: 2016

11 Feb 2020 18:00 UTC to 23 Feb 2020 09:00 UTC

    date/time    lat    long     hPa   cat  kts
2020-02-11 18   14.9    73.7    1010         15          
2020-02-12 00   14.9    74.1    1010         15          
2020-02-12 06   14.8    74.5    1010         15          
2020-02-12 12   14.8    74.6    1010         15          
2020-02-12 18   14.8    74.7    1011         15          
2020-02-13 00   14.8    74.8    1009         15          
2020-02-13 06   14.8    74.9    1008         20          
2020-02-13 12   14.8    75.0    1008         20          
2020-02-13 18   14.6    74.8    1004         25          
2020-02-14 00   14.4    74.9    1003         25          
2020-02-14 06   14.5    75.2    1003         25          
2020-02-14 12   14.9    75.2    1001         30          
2020-02-14 18   15.4    75.0    1003         30          
2020-02-15 00   16.0    74.7    1001    1    35          
2020-02-15 06   16.4    74.5     997    1    40          
2020-02-15 12   17.1    74.4     995    1    45          
2020-02-15 18   17.6    74.3     985    2    55          
2020-02-16 00   18.4    74.5     981    3    75          
2020-02-16 06   19.3    74.8     980    3    75          
2020-02-16 12   20.2    75.0     978    3    75          
2020-02-16 18   20.5    75.1     978    3    75          
2020-02-17 00   20.3    75.2     980    3    70          
2020-02-17 06   20.2    75.3     986    2    60          
2020-02-17 12   20.3    75.4     993    1    45          
2020-02-17 18   20.4    75.6     998    1    40          
2020-02-18 00   20.5    75.8    1001    1    35          
2020-02-18 06   20.6    75.7    1002    1    35          
2020-02-18 12   21.0    75.5     998         30          
2020-02-18 18   21.4    75.0    1002         30          
2020-02-19 00   21.9    74.9    1001         30          
2020-02-19 06   22.9    74.5    1001         30          
2020-02-19 09   23.7    74.5     997         30          
2020-02-20 09   24.0    71.3     997         25          
2020-02-21 10   23.6    70.0    1004         20          
2020-02-22 10   21.8    67.1    1007         20          
2020-02-23 09   21.8    65.6    1007         20          
Winds are 10-min average.

Tropical cyclone tracks developed by Michael Bath using operational warnings and advisories and Google Maps.


Document: tropical_cyclone_gabekile.htm
Updated: 17 June 2020
[Australian Severe Weather index] [Copyright Notice] [Email Contacts] [Search This Site] [Privacy Policy]


Main Index Home Page Stock Weather Photos Extreme Storms Discussion Storm News and Storm Chasing Reports Tropical Cyclones / Hurricanes / Typhoons Weather Data and Links Wild Fires / Bushfires Weather Observation Techniques Weather Picture Catalogue Tornado Pictures and Reports Stock Video Footage and DVDs for sale